createdAt,value
2023-06-18T00:00:16.775Z,21.07
2023-06-18T00:02:22.000Z,20.20
2023-06-18T00:04:07.308Z,19.66
2023-06-18T00:05:54.943Z,20.13
2023-06-18T00:07:31.775Z,20.95
2023-06-18T00:09:06.888Z,21.65
2023-06-18T00:11:01.893Z,22.08
2023-06-18T00:12:42.821Z,21.59
2023-06-18T00:14:28.086Z,20.80
2023-06-18T00:16:13.119Z,20.01
2023-06-18T00:17:44.881Z,19.48
2023-06-18T00:19:23.522Z,19.76
2023-06-18T00:21:09.836Z,20.66
2023-06-18T00:22:32.897Z,21.38
2023-06-18T00:24:02.132Z,21.85
2023-06-18T00:25:47.485Z,21.72
2023-06-18T00:27:28.917Z,21.03
2023-06-18T00:29:05.252Z,20.27
2023-06-18T00:30:57.060Z,19.56
2023-06-18T00:32:31.128Z,19.51
2023-06-18T00:34:08.430Z,20.31
2023-06-18T00:35:54.234Z,21.04
2023-06-18T00:37:40.781Z,21.76
2023-06-18T00:39:17.814Z,21.56
2023-06-18T00:40:51.517Z,20.95
2023-06-18T00:42:36.577Z,20.18
2023-06-18T00:44:21.430Z,19.52
2023-06-18T00:46:07.011Z,19.46
2023-06-18T00:47:55.876Z,20.28
2023-06-18T00:49:36.881Z,21.16
2023-06-18T00:51:19.111Z,21.71
2023-06-18T00:53:05.382Z,21.39
2023-06-18T00:54:51.967Z,20.64
2023-06-18T00:56:27.520Z,19.84
2023-06-18T00:58:09.022Z,19.28
2023-06-18T00:59:33.703Z,19.39
2023-06-18T01:00:59.836Z,20.07
2023-06-18T01:02:40.114Z,20.78
2023-06-18T01:04:06.158Z,21.49
2023-06-18T01:05:52.262Z,21.63
2023-06-18T01:07:40.450Z,20.97
2023-06-18T01:09:33.836Z,20.15
2023-06-18T01:11:08.683Z,19.46
2023-06-18T01:12:42.054Z,19.40
2023-06-18T01:14:22.350Z,20.09
2023-06-18T01:16:06.864Z,20.93
2023-06-18T01:17:43.742Z,21.67
2023-06-18T01:19:17.053Z,21.61
2023-06-18T01:20:57.974Z,20.98
2023-06-18T01:22:31.808Z,20.30
2023-06-18T01:24:07.370Z,19.64
2023-06-18T01:26:01.327Z,19.35
2023-06-18T01:27:36.596Z,20.04
2023-06-18T01:29:11.678Z,20.91
2023-06-18T01:30:58.527Z,21.55
2023-06-18T01:32:34.572Z,21.52
2023-06-18T01:34:17.157Z,20.87
2023-06-18T01:35:52.847Z,19.99
2023-06-18T01:37:15.925Z,19.24
2023-06-18T01:39:05.955Z,18.92
2023-06-18T01:40:39.915Z,19.60
2023-06-18T01:42:13.236Z,20.35
2023-06-18T01:43:59.265Z,20.98
2023-06-18T01:45:25.670Z,21.32
2023-06-18T01:47:11.552Z,20.90
2023-06-18T01:48:36.838Z,20.14
2023-06-18T01:50:19.971Z,19.42
2023-06-18T01:51:56.721Z,18.80
2023-06-18T01:53:26.245Z,19.06
2023-06-18T01:55:02.549Z,19.69
2023-06-18T01:56:36.767Z,20.49
2023-06-18T01:58:21.644Z,21.05
2023-06-18T01:59:57.789Z,21.11
2023-06-18T02:01:22.038Z,20.56
2023-06-18T02:03:02.908Z,19.79
2023-06-18T02:04:27.258Z,19.11
2023-06-18T02:06:06.069Z,18.69
2023-06-18T02:07:47.741Z,19.20
2023-06-18T02:09:33.018Z,20.05
2023-06-18T02:11:16.813Z,20.79
2023-06-18T02:12:53.044Z,21.13
2023-06-18T02:14:27.522Z,20.63
2023-06-18T02:16:08.918Z,19.93
2023-06-18T02:17:45.148Z,19.06
2023-06-18T02:19:28.084Z,18.72
2023-06-18T02:21:13.703Z,19.34
2023-06-18T02:23:00.872Z,20.24
2023-06-18T02:24:37.294Z,20.91
2023-06-18T02:26:10.785Z,21.10
2023-06-18T02:27:52.369Z,20.55
2023-06-18T02:29:27.852Z,19.81
2023-06-18T02:31:19.257Z,19.07
2023-06-18T02:33:05.738Z,18.70
2023-06-18T02:34:54.970Z,19.32
2023-06-18T02:36:21.558Z,20.20
2023-06-18T02:37:56.314Z,20.88
2023-06-18T02:39:29.880Z,21.16
2023-06-18T02:40:57.558Z,20.72
2023-06-18T02:42:33.008Z,19.98
2023-06-18T02:44:14.571Z,19.37
2023-06-18T02:45:59.556Z,19.01
2023-06-18T02:47:29.143Z,19.65
2023-06-18T02:49:00.545Z,20.41
2023-06-18T02:50:34.582Z,21.03
2023-06-18T02:52:11.000Z,21.44
2023-06-18T02:54:04.844Z,20.96
2023-06-18T02:55:45.589Z,20.08
2023-06-18T02:57:30.943Z,19.42
2023-06-18T02:59:15.629Z,19.14
2023-06-18T03:00:46.609Z,19.84
2023-06-18T03:02:22.144Z,20.65
2023-06-18T03:03:55.999Z,21.23
2023-06-18T03:05:42.576Z,21.52
2023-06-18T03:07:12.981Z,21.00
2023-06-18T03:08:55.908Z,20.30
2023-06-18T03:10:29.424Z,19.46
2023-06-18T03:12:16.313Z,19.09
2023-06-18T03:14:05.585Z,19.69
2023-06-18T03:15:46.333Z,20.61
2023-06-18T03:17:20.476Z,21.32
2023-06-18T03:19:13.910Z,21.63
2023-06-18T03:20:53.821Z,21.14
2023-06-18T03:22:34.689Z,20.34
2023-06-18T03:24:24.141Z,19.62
2023-06-18T03:26:10.542Z,19.33
2023-06-18T03:28:04.086Z,20.05
2023-06-18T03:29:51.347Z,21.03
2023-06-18T03:31:36.968Z,21.72
2023-06-18T03:33:25.360Z,21.59
2023-06-18T03:35:15.912Z,20.87
2023-06-18T03:37:10.843Z,20.07
2023-06-18T03:38:58.860Z,19.52
2023-06-18T03:40:44.849Z,20.02
2023-06-18T03:42:20.014Z,20.97
2023-06-18T03:44:14.935Z,21.69
2023-06-18T03:45:51.402Z,22.03
2023-06-18T03:47:37.341Z,21.51
2023-06-18T03:49:13.464Z,20.82
2023-06-18T03:51:07.337Z,20.12
2023-06-18T03:53:03.208Z,19.93
2023-06-18T03:54:56.947Z,20.80
2023-06-18T03:56:38.412Z,21.68
2023-06-18T03:58:11.908Z,22.17
2023-06-18T03:59:54.039Z,21.82
2023-06-18T04:01:29.687Z,21.06
2023-06-18T04:03:11.487Z,20.47
2023-06-18T04:04:56.793Z,19.86
2023-06-18T04:06:28.618Z,20.18
2023-06-18T04:07:57.811Z,20.91
2023-06-18T04:09:31.633Z,21.77
2023-06-18T04:11:01.325Z,22.31
2023-06-18T04:12:46.813Z,22.27
2023-06-18T04:14:27.236Z,21.68
2023-06-18T04:16:21.063Z,20.90
2023-06-18T04:18:07.016Z,20.30
2023-06-18T04:20:01.806Z,20.67
2023-06-18T04:21:47.055Z,21.63
2023-06-18T04:23:28.495Z,22.48
2023-06-18T04:25:09.128Z,23.00
2023-06-18T04:26:42.828Z,22.69
2023-06-18T04:28:28.050Z,22.04
2023-06-18T04:30:13.853Z,21.38
2023-06-18T04:31:49.502Z,20.80
2023-06-18T04:33:23.273Z,21.03
2023-06-18T04:34:57.588Z,21.71
2023-06-18T04:36:42.836Z,22.61
2023-06-18T04:38:15.909Z,23.08
2023-06-18T04:39:50.150Z,22.71
2023-06-18T04:41:34.394Z,22.11
2023-06-18T04:43:22.660Z,21.35
2023-06-18T04:45:03.405Z,20.75
2023-06-18T04:46:54.274Z,20.39
2023-06-18T04:48:24.429Z,20.92
2023-06-18T04:50:17.488Z,21.85
2023-06-18T04:52:05.871Z,22.52
2023-06-18T04:53:30.551Z,22.19
2023-06-18T04:55:20.217Z,21.58
2023-06-18T04:56:53.900Z,20.96
2023-06-18T04:58:29.820Z,20.46
2023-06-18T05:00:10.700Z,19.98
2023-06-18T05:01:47.978Z,19.94
2023-06-18T05:03:22.103Z,20.83
2023-06-18T05:05:07.493Z,21.75
2023-06-18T05:06:44.716Z,22.55
2023-06-18T05:08:28.215Z,22.66
2023-06-18T05:10:21.997Z,22.01
2023-06-18T05:12:03.484Z,21.27
2023-06-18T05:13:36.897Z,20.74
2023-06-18T05:15:10.523Z,20.43
2023-06-18T05:16:40.864Z,20.84
2023-06-18T05:18:17.450Z,21.67
2023-06-18T05:19:51.056Z,22.53
2023-06-18T05:21:28.724Z,22.66
2023-06-18T05:23:23.308Z,22.13
2023-06-18T05:24:50.250Z,21.50
2023-06-18T05:26:35.571Z,20.99
2023-06-18T05:28:22.349Z,20.53
2023-06-18T05:29:55.821Z,20.35
2023-06-18T05:31:29.489Z,20.92
2023-06-18T05:33:09.776Z,21.88
2023-06-18T05:34:44.381Z,22.71
2023-06-18T05:36:17.802Z,22.70
2023-06-18T05:37:53.460Z,22.24
2023-06-18T05:39:29.839Z,21.60
2023-06-18T05:41:22.945Z,21.08
2023-06-18T05:43:10.801Z,20.58
2023-06-18T05:45:03.322Z,20.39
2023-06-18T05:46:36.996Z,21.22
2023-06-18T05:48:26.248Z,22.20
2023-06-18T05:50:02.929Z,23.14
2023-06-18T05:51:48.979Z,23.06
2023-06-18T05:53:14.652Z,22.52
2023-06-18T05:54:49.029Z,22.01
2023-06-18T05:56:10.849Z,21.52
2023-06-18T05:58:02.501Z,21.11
2023-06-18T05:59:55.872Z,20.79
2023-06-18T06:01:40.612Z,21.51
2023-06-18T06:03:25.906Z,22.53
2023-06-18T06:05:10.871Z,23.18
2023-06-18T06:06:52.379Z,22.90
2023-06-18T06:08:25.430Z,22.26
2023-06-18T06:10:07.570Z,21.75
2023-06-18T06:11:42.413Z,21.25
2023-06-18T06:13:22.282Z,21.27
2023-06-18T06:15:20.986Z,22.19
2023-06-18T06:17:08.865Z,23.17
2023-06-18T06:18:54.729Z,23.75
2023-06-18T06:20:30.427Z,23.34
2023-06-18T06:22:24.880Z,22.75
2023-06-18T06:24:10.577Z,22.13
2023-06-18T06:25:47.610Z,21.68
2023-06-18T06:27:28.775Z,21.35
2023-06-18T06:29:05.909Z,21.06
2023-06-18T06:30:51.847Z,21.45
2023-06-18T06:32:37.173Z,22.51
2023-06-18T06:34:22.606Z,23.51
2023-06-18T06:35:56.518Z,23.95
2023-06-18T06:37:40.022Z,23.59
2023-06-18T06:39:25.343Z,22.95
2023-06-18T06:40:59.195Z,22.40
2023-06-18T06:42:39.825Z,22.03
2023-06-18T06:44:37.669Z,21.63
2023-06-18T06:47:01.752Z,21.34
2023-06-18T06:49:08.395Z,21.47
2023-06-18T06:51:23.606Z,22.75
2023-06-18T06:53:11.770Z,23.81
2023-06-18T06:54:53.072Z,23.95
2023-06-18T06:56:33.595Z,23.52
2023-06-18T06:58:08.648Z,23.05
2023-06-18T06:59:42.274Z,22.60
2023-06-18T07:01:25.067Z,22.31
2023-06-18T07:03:10.750Z,22.08
2023-06-18T07:04:59.040Z,21.87
2023-06-18T07:06:39.709Z,21.68
2023-06-18T07:08:27.485Z,21.53
2023-06-18T07:10:01.514Z,21.38
2023-06-18T07:11:46.677Z,21.26
2023-06-18T07:13:22.727Z,21.16
2023-06-18T07:15:07.656Z,21.07
2023-06-18T07:16:41.169Z,20.99
2023-06-18T07:18:16.773Z,20.93
2023-06-18T07:20:10.904Z,20.87
2023-06-18T07:21:46.850Z,20.97
2023-06-18T07:23:31.887Z,21.75
2023-06-18T07:25:07.151Z,22.96
2023-06-18T07:26:42.817Z,23.13
2023-06-18T07:28:27.626Z,22.86
2023-06-18T07:30:21.503Z,22.49
2023-06-18T07:31:58.336Z,22.20
2023-06-18T07:33:43.021Z,21.99
2023-06-18T07:35:24.873Z,21.85
2023-06-18T07:36:58.658Z,21.73
2023-06-18T07:38:20.274Z,21.67
2023-06-18T07:39:55.271Z,21.61
2023-06-18T07:41:40.425Z,21.58
2023-06-18T07:43:23.862Z,21.55
2023-06-18T07:44:59.154Z,21.53
2023-06-18T07:46:44.379Z,21.51
2023-06-18T07:48:29.339Z,21.49
2023-06-18T07:50:07.252Z,21.46
2023-06-18T07:51:52.606Z,21.44
2023-06-18T07:53:33.369Z,21.41
2023-06-18T07:55:14.365Z,21.38
2023-06-18T07:56:47.744Z,21.36
2023-06-18T07:58:37.851Z,21.35
2023-06-18T08:00:23.238Z,21.35
2023-06-18T08:01:57.433Z,21.34
2023-06-18T08:03:30.605Z,21.34
2023-06-18T08:05:06.822Z,21.35
2023-06-18T08:06:54.404Z,21.37
2023-06-18T08:08:30.046Z,21.39
2023-06-18T08:10:23.140Z,21.41
2023-06-18T08:12:18.899Z,21.44
2023-06-18T08:14:03.802Z,21.46
2023-06-18T08:15:39.890Z,21.49
2023-06-18T08:17:06.466Z,21.53
2023-06-18T08:18:39.705Z,21.57
2023-06-18T08:20:13.059Z,21.62
2023-06-18T08:21:54.366Z,21.66
2023-06-18T08:23:27.848Z,21.70
2023-06-18T08:25:14.017Z,21.71
2023-06-18T08:26:59.329Z,21.69
2023-06-18T08:28:45.422Z,21.68
2023-06-18T08:30:29.983Z,21.70
2023-06-18T08:32:05.755Z,21.72
2023-06-18T08:33:36.821Z,21.72
2023-06-18T08:35:02.260Z,21.72
2023-06-18T08:36:47.786Z,21.72
2023-06-18T08:38:33.081Z,21.72
2023-06-18T08:40:13.450Z,21.73
2023-06-18T08:41:47.157Z,21.75
2023-06-18T08:43:29.614Z,21.77
2023-06-18T08:45:23.543Z,21.80
2023-06-18T08:47:18.878Z,21.85
2023-06-18T08:49:02.801Z,21.89
2023-06-18T08:50:47.805Z,21.93
2023-06-18T08:52:37.877Z,21.95
2023-06-18T08:54:02.244Z,21.96
2023-06-18T08:55:47.215Z,21.96
2023-06-18T08:57:32.295Z,21.96
2023-06-18T08:59:07.912Z,21.99
2023-06-18T09:00:53.245Z,22.05
2023-06-18T09:02:38.380Z,22.11
2023-06-18T09:04:23.782Z,22.13
2023-06-18T09:06:17.891Z,22.12
2023-06-18T09:07:53.919Z,22.14
2023-06-18T09:09:29.544Z,22.16
2023-06-18T09:11:14.788Z,22.19
2023-06-18T09:13:08.023Z,22.24
2023-06-18T09:14:41.781Z,22.30
2023-06-18T09:16:14.789Z,22.36
2023-06-18T09:18:00.996Z,22.42
2023-06-18T09:19:25.189Z,22.50
2023-06-18T09:20:58.904Z,22.57
2023-06-18T09:22:32.332Z,22.65
2023-06-18T09:24:18.336Z,22.73
2023-06-18T09:25:40.391Z,22.84
2023-06-18T09:27:15.860Z,22.94
2023-06-18T09:28:57.045Z,23.04
2023-06-18T09:30:33.018Z,23.14
2023-06-18T09:32:04.366Z,23.21
2023-06-18T09:33:37.765Z,23.29
2023-06-18T09:35:31.886Z,23.37
2023-06-18T09:37:07.424Z,23.49
2023-06-18T09:38:40.811Z,23.56
2023-06-18T09:40:21.270Z,23.64
2023-06-18T09:41:57.585Z,23.74
2023-06-18T09:43:19.024Z,23.82
2023-06-18T09:44:52.637Z,23.89
2023-06-18T09:46:35.035Z,23.98
2023-06-18T09:48:04.375Z,24.06
2023-06-18T09:49:48.759Z,24.08
2023-06-18T09:51:36.634Z,24.08
2023-06-18T09:53:22.109Z,24.13
2023-06-18T09:55:07.933Z,24.21
2023-06-18T09:56:32.246Z,24.31
2023-06-18T09:57:58.732Z,24.39
2023-06-18T09:59:32.293Z,24.46
2023-06-18T10:00:56.108Z,24.53
2023-06-18T10:02:40.787Z,24.63
2023-06-18T10:04:14.103Z,24.76
2023-06-18T10:05:43.286Z,24.84
2023-06-18T10:07:18.331Z,24.92
2023-06-18T10:08:54.582Z,24.98
2023-06-18T10:10:28.048Z,25.02
2023-06-18T10:12:08.734Z,25.06
2023-06-18T10:13:42.791Z,25.11
2023-06-18T10:15:30.424Z,25.15
2023-06-18T10:17:04.269Z,25.13
2023-06-18T10:18:28.123Z,25.09
2023-06-18T10:20:05.243Z,25.01
2023-06-18T10:21:51.282Z,24.91
2023-06-18T10:23:25.257Z,24.84
2023-06-18T10:25:10.212Z,24.77
2023-06-18T10:26:54.279Z,24.73
2023-06-18T10:28:27.899Z,24.75
2023-06-18T10:30:08.754Z,24.76
2023-06-18T10:31:35.329Z,24.78
2023-06-18T10:33:20.157Z,24.84
2023-06-18T10:35:11.717Z,24.94
2023-06-18T10:36:45.462Z,25.06
2023-06-18T10:38:07.071Z,25.15
2023-06-18T10:39:52.545Z,25.27
2023-06-18T10:41:28.164Z,25.43
2023-06-18T10:43:03.925Z,25.57
2023-06-18T10:44:55.584Z,25.70
2023-06-18T10:46:40.917Z,25.85
2023-06-18T10:48:31.729Z,26.00
2023-06-18T10:50:25.287Z,26.14
2023-06-18T10:52:17.686Z,26.26
2023-06-18T10:53:44.416Z,26.33
2023-06-18T10:55:31.471Z,26.38
2023-06-18T10:57:05.140Z,26.40
2023-06-18T10:58:40.689Z,26.38
2023-06-18T11:00:32.777Z,26.21
2023-06-18T11:02:13.466Z,25.90
2023-06-18T11:03:54.590Z,25.63
2023-06-18T11:05:20.862Z,25.39
2023-06-18T11:07:15.902Z,25.18
2023-06-18T11:08:56.320Z,24.94
2023-06-18T11:10:30.082Z,24.73
2023-06-18T11:12:03.340Z,24.55
2023-06-18T11:13:37.396Z,24.38
2023-06-18T11:15:10.777Z,24.24
2023-06-18T11:16:42.136Z,24.12
2023-06-18T11:18:26.990Z,23.98
2023-06-18T11:20:13.161Z,23.85
2023-06-18T11:21:47.078Z,23.75
2023-06-18T11:23:20.503Z,23.64
2023-06-18T11:24:53.916Z,23.52
2023-06-18T11:26:28.353Z,23.39
2023-06-18T11:28:04.593Z,23.21
2023-06-18T11:29:58.929Z,22.92
2023-06-18T11:31:44.870Z,22.54
2023-06-18T11:33:20.496Z,23.02
2023-06-18T11:45:18.846Z,23.09
2023-06-18T11:47:05.607Z,23.44
2023-06-18T11:48:39.612Z,23.32
2023-06-18T11:50:25.324Z,22.42
2023-06-18T11:52:14.453Z,21.31
2023-06-18T11:53:55.103Z,21.05
2023-06-18T11:55:31.294Z,21.60
2023-06-18T11:57:16.844Z,22.21
2023-06-18T11:58:56.032Z,22.77
2023-06-18T12:00:30.813Z,23.21
2023-06-18T12:01:52.894Z,23.73
2023-06-18T12:05:49.882Z,23.15
2023-06-18T12:07:31.132Z,21.94
2023-06-18T12:09:19.757Z,21.12
2023-06-18T12:11:05.155Z,21.50
2023-06-18T12:12:59.548Z,22.24
2023-06-18T12:14:44.398Z,22.94
2023-06-18T12:16:38.560Z,23.40
2023-06-18T12:18:33.551Z,23.83
2023-06-18T12:20:27.536Z,23.62
2023-06-18T12:22:03.322Z,22.54
2023-06-18T12:23:53.590Z,21.74
2023-06-18T12:25:47.387Z,21.94
2023-06-18T12:27:41.545Z,22.76
2023-06-18T12:29:35.109Z,23.59
2023-06-18T12:31:12.713Z,24.37
2023-06-18T12:32:46.155Z,24.55
2023-06-18T12:34:23.839Z,24.00
2023-06-18T12:36:14.070Z,22.92
2023-06-18T12:37:55.575Z,22.34
2023-06-18T12:39:42.975Z,22.98
2023-06-18T12:41:28.698Z,24.21
2023-06-18T12:42:57.999Z,25.46
2023-06-18T12:44:31.874Z,26.43
2023-06-18T12:46:03.110Z,26.30
2023-06-18T12:47:57.558Z,25.50
2023-06-18T12:49:51.576Z,24.68
2023-06-18T12:51:46.580Z,25.23
2023-06-18T12:53:39.648Z,26.23
2023-06-18T12:55:27.474Z,26.90
2023-06-18T12:57:01.345Z,26.48
2023-06-18T12:58:47.562Z,25.82
2023-06-18T13:00:42.540Z,25.49
2023-06-18T13:02:17.138Z,26.30
2023-06-18T13:04:02.529Z,27.50
2023-06-18T13:05:38.813Z,28.13
2023-06-18T13:07:12.232Z,27.78
2023-06-18T13:08:41.553Z,27.16
2023-06-18T13:10:26.700Z,26.57
2023-06-18T13:12:00.790Z,26.11
2023-06-18T13:13:34.339Z,26.18
2023-06-18T13:15:07.666Z,27.13
2023-06-18T13:17:04.010Z,27.76
2023-06-18T13:18:47.561Z,27.32
2023-06-18T13:20:28.603Z,26.53
2023-06-18T13:22:04.783Z,25.88
2023-06-18T13:23:58.361Z,25.34
2023-06-18T13:25:41.544Z,24.87
2023-06-18T13:27:31.921Z,25.10
2023-06-18T13:29:17.112Z,26.21
2023-06-18T13:30:58.049Z,26.84
2023-06-18T13:32:52.387Z,26.48
2023-06-18T13:34:47.561Z,25.75
2023-06-18T13:36:23.080Z,25.08
2023-06-18T13:38:12.123Z,24.63
2023-06-18T13:39:53.048Z,24.25
2023-06-18T13:41:42.004Z,23.92
2023-06-18T13:43:15.376Z,24.30
2023-06-18T13:45:00.413Z,25.54
2023-06-18T13:46:54.261Z,26.52
2023-06-18T13:48:49.556Z,26.47
2023-06-18T13:50:35.229Z,25.73
2023-06-18T13:52:08.760Z,25.03
2023-06-18T13:53:42.061Z,24.53
2023-06-18T13:55:27.265Z,24.16
2023-06-18T13:57:00.731Z,23.92
2023-06-18T13:58:41.595Z,24.52
2023-06-18T14:00:34.653Z,25.62
2023-06-18T14:02:27.926Z,26.56
2023-06-18T14:04:13.922Z,26.36
2023-06-18T14:05:59.027Z,25.69
2023-06-18T14:07:33.632Z,25.03
2023-06-18T14:09:20.136Z,24.51
2023-06-18T14:10:56.831Z,24.09
2023-06-18T14:12:47.224Z,23.77
2023-06-18T14:14:29.541Z,23.49
2023-06-18T14:16:15.222Z,23.30
2023-06-18T14:18:00.219Z,23.98
2023-06-18T14:19:45.468Z,25.19
2023-06-18T14:21:23.296Z,26.04
2023-06-18T14:23:08.562Z,26.04
2023-06-18T14:24:54.900Z,25.49
2023-06-18T14:26:36.115Z,24.92
2023-06-18T14:28:31.573Z,24.48
2023-06-18T14:30:18.659Z,24.12
2023-06-18T14:31:52.503Z,23.91
2023-06-18T14:33:37.572Z,23.82
2023-06-18T14:35:13.701Z,23.73
2023-06-18T14:36:58.693Z,23.77
2023-06-18T14:38:27.978Z,24.68
2023-06-18T14:39:50.164Z,25.83
2023-06-18T14:41:19.134Z,26.73
2023-06-18T14:43:01.575Z,26.87
2023-06-18T14:44:49.589Z,26.66
2023-06-18T14:46:30.625Z,26.34
2023-06-18T14:48:15.565Z,26.02
2023-06-18T14:50:05.906Z,25.67
2023-06-18T14:51:39.287Z,25.34
2023-06-18T14:53:17.618Z,25.06
2023-06-18T14:54:51.070Z,24.77
2023-06-18T14:56:38.361Z,24.47
2023-06-18T14:58:11.649Z,24.19
2023-06-18T14:59:56.628Z,23.99
2023-06-18T15:01:20.841Z,23.81
2023-06-18T15:03:06.407Z,23.62
2023-06-18T15:04:50.543Z,23.41
2023-06-18T15:06:40.785Z,23.17
2023-06-18T15:08:35.630Z,23.40
2023-06-18T15:10:22.536Z,24.52
2023-06-18T15:11:58.746Z,25.48
2023-06-18T15:13:40.283Z,25.87
2023-06-18T15:15:04.385Z,25.54
2023-06-18T15:16:26.635Z,25.10
2023-06-18T15:18:07.898Z,24.61
2023-06-18T15:19:52.586Z,24.23
2023-06-18T15:21:24.026Z,23.84
2023-06-18T15:22:57.530Z,23.55
2023-06-18T15:24:33.835Z,23.33
2023-06-18T15:26:07.446Z,23.80
2023-06-18T15:27:40.798Z,24.70
2023-06-18T15:29:28.983Z,25.46
2023-06-18T15:31:15.216Z,25.37
2023-06-18T15:33:00.707Z,24.80
2023-06-18T15:34:41.671Z,24.26
2023-06-18T15:36:15.221Z,23.77
2023-06-18T15:38:02.573Z,23.38
2023-06-18T15:39:48.679Z,23.20
2023-06-18T15:41:34.852Z,23.94
2023-06-18T15:43:15.994Z,24.83
2023-06-18T15:44:51.457Z,25.23
2023-06-18T15:46:39.634Z,24.87
2023-06-18T15:48:26.945Z,24.14
2023-06-18T15:50:12.678Z,23.54
2023-06-18T15:51:41.869Z,23.08
2023-06-18T15:53:30.320Z,22.69
2023-06-18T15:55:03.968Z,23.14
2023-06-18T15:56:44.972Z,24.06
2023-06-18T15:58:11.445Z,24.88
2023-06-18T15:59:58.662Z,25.03
2023-06-18T16:01:33.438Z,24.54
2023-06-18T16:03:14.671Z,23.93
2023-06-18T16:05:01.586Z,23.44
2023-06-18T16:06:44.553Z,23.02
2023-06-18T16:08:17.809Z,22.70
2023-06-18T16:09:56.056Z,22.48
2023-06-18T16:11:43.408Z,22.24
2023-06-18T16:13:37.070Z,22.65
2023-06-18T16:15:17.850Z,23.78
2023-06-18T16:16:49.048Z,24.15
2023-06-18T16:18:22.793Z,23.89
2023-06-18T16:20:04.812Z,23.37
2023-06-18T16:21:38.636Z,22.90
2023-06-18T16:23:24.065Z,22.53
2023-06-18T16:24:57.809Z,22.19
2023-06-18T16:26:31.629Z,21.95
2023-06-18T16:28:17.638Z,21.75
2023-06-18T16:30:03.209Z,22.03
2023-06-18T16:31:50.169Z,23.12
2023-06-18T16:33:14.572Z,24.10
2023-06-18T16:34:59.363Z,24.33
2023-06-18T16:36:33.584Z,23.97
2023-06-18T16:38:04.170Z,23.45
2023-06-18T16:39:28.739Z,23.05
2023-06-18T16:41:04.471Z,22.68
2023-06-18T16:42:26.952Z,22.35
2023-06-18T16:44:00.648Z,22.08
2023-06-18T16:45:43.626Z,21.80
2023-06-18T16:47:19.281Z,21.53
2023-06-18T16:49:04.498Z,21.31
2023-06-18T16:50:45.396Z,21.65
2023-06-18T16:52:30.501Z,22.70
2023-06-18T16:54:04.045Z,23.65
2023-06-18T16:55:58.591Z,23.67
2023-06-18T16:57:33.716Z,23.19
2023-06-18T16:59:14.374Z,22.65
2023-06-18T17:01:00.129Z,22.20
2023-06-18T17:02:34.341Z,21.85
2023-06-18T17:04:10.162Z,21.52
2023-06-18T17:05:36.269Z,21.29
2023-06-18T17:07:09.304Z,21.09
2023-06-18T17:08:43.033Z,21.19
2023-06-18T17:10:37.612Z,22.06
2023-06-18T17:12:06.613Z,23.17
2023-06-18T17:13:47.680Z,23.63
2023-06-18T17:15:28.824Z,23.27
2023-06-18T17:17:09.795Z,22.75
2023-06-18T17:18:45.797Z,22.27
2023-06-18T17:20:09.391Z,21.90
2023-06-18T17:21:45.606Z,21.60
2023-06-18T17:23:17.000Z,21.36
2023-06-18T17:24:50.507Z,21.12
2023-06-18T17:26:35.542Z,21.31
2023-06-18T17:28:04.748Z,22.31
2023-06-18T17:29:41.707Z,23.21
2023-06-18T17:31:03.840Z,24.09
2023-06-18T17:32:38.110Z,24.25
2023-06-18T17:34:24.478Z,23.83
2023-06-18T17:36:19.605Z,23.23
2023-06-18T17:37:53.929Z,22.66
2023-06-18T17:39:18.253Z,22.33
2023-06-18T17:41:03.629Z,22.04
2023-06-18T17:42:42.018Z,22.38
2023-06-18T17:44:18.779Z,23.40
2023-06-18T17:46:12.549Z,24.31
2023-06-18T17:47:58.219Z,24.38
2023-06-18T17:49:38.915Z,23.83
2023-06-18T17:51:33.623Z,23.25
2023-06-18T17:53:27.606Z,22.71
2023-06-18T17:55:12.423Z,22.45
2023-06-18T17:56:47.779Z,23.15
2023-06-18T17:58:33.014Z,24.05
2023-06-18T18:00:02.373Z,24.63
2023-06-18T18:01:38.060Z,24.43
2023-06-18T18:03:11.888Z,23.86
2023-06-18T18:04:47.382Z,23.20
2023-06-18T18:06:21.612Z,22.68
2023-06-18T18:07:57.506Z,22.31
2023-06-18T18:09:42.617Z,22.43
2023-06-18T18:11:27.869Z,23.35
2023-06-18T18:13:04.750Z,24.31
2023-06-18T18:14:50.931Z,24.80
2023-06-18T18:16:25.250Z,24.51
2023-06-18T18:18:10.609Z,23.83
2023-06-18T18:19:56.007Z,23.18
2023-06-18T18:21:36.911Z,22.63
2023-06-18T18:23:05.745Z,22.22
2023-06-18T18:24:39.286Z,21.87
2023-06-18T18:27:42.805Z,22.82
2023-06-18T18:29:37.662Z,23.69
2023-06-18T18:31:14.189Z,24.45
2023-06-18T18:32:48.109Z,24.68
2023-06-18T18:34:21.597Z,24.17
2023-06-18T18:35:54.969Z,23.51
2023-06-18T18:37:28.724Z,22.91
2023-06-18T18:39:13.618Z,22.39
2023-06-18T18:40:54.544Z,22.08
2023-06-18T18:42:28.388Z,22.59
2023-06-18T18:44:01.956Z,23.40
2023-06-18T18:45:42.815Z,24.12
2023-06-18T18:47:27.726Z,24.29
2023-06-18T18:49:12.679Z,23.66
2023-06-18T18:50:57.750Z,22.91
2023-06-18T18:52:40.521Z,22.29
2023-06-18T18:54:21.778Z,21.76
2023-06-18T18:55:56.711Z,21.61
2023-06-18T18:57:33.490Z,22.18
2023-06-18T18:59:22.041Z,23.13
2023-06-18T19:00:57.518Z,23.83
2023-06-18T19:02:19.765Z,24.01
2023-06-18T19:04:05.120Z,23.47
2023-06-18T19:05:26.699Z,22.75
2023-06-18T19:07:11.867Z,22.10
2023-06-18T19:08:45.799Z,21.98
2023-06-18T19:10:15.247Z,22.66
2023-06-18T19:12:00.738Z,23.39
2023-06-18T19:13:34.083Z,24.04
2023-06-18T19:15:18.905Z,24.41
2023-06-18T19:17:04.019Z,24.05
2023-06-18T19:18:51.159Z,23.26
2023-06-18T19:20:32.704Z,22.50
2023-06-18T19:22:06.304Z,21.99
2023-06-18T19:23:40.102Z,22.23
2023-06-18T19:25:23.643Z,22.89
2023-06-18T19:27:04.831Z,23.77
2023-06-18T19:28:48.641Z,24.20
2023-06-18T19:30:33.614Z,23.79
2023-06-18T19:32:14.364Z,22.96
2023-06-18T19:33:59.660Z,22.19
2023-06-18T19:35:45.034Z,21.63
2023-06-18T19:37:29.788Z,22.03
2023-06-18T19:39:11.073Z,22.83
2023-06-18T19:40:37.642Z,23.50
2023-06-18T19:41:59.528Z,23.93
2023-06-18T19:43:41.131Z,23.77
2023-06-18T19:45:15.476Z,23.12
2023-06-18T19:46:47.454Z,22.32
2023-06-18T19:48:23.217Z,21.66
2023-06-18T19:49:58.630Z,21.43
2023-06-18T19:51:32.748Z,21.98
2023-06-18T19:53:03.794Z,22.81
2023-06-18T19:54:48.065Z,23.38
2023-06-18T19:56:42.690Z,23.61
2023-06-18T19:58:18.068Z,22.96
2023-06-18T20:00:03.214Z,22.16
2023-06-18T20:01:55.774Z,21.47
2023-06-18T20:03:50.694Z,21.37
2023-06-18T20:05:44.167Z,22.23
2023-06-18T20:07:29.638Z,23.07
2023-06-18T20:09:24.075Z,23.47
2023-06-18T20:10:57.358Z,22.90
2023-06-18T20:12:33.640Z,22.16
2023-06-18T20:14:14.947Z,21.45
2023-06-18T20:15:57.262Z,21.20
2023-06-18T20:17:43.869Z,21.90
2023-06-18T20:19:17.924Z,22.71
2023-06-18T20:21:02.427Z,23.28
2023-06-18T20:22:50.491Z,23.45
2023-06-18T20:24:32.548Z,22.74
2023-06-18T20:26:17.579Z,21.93
2023-06-18T20:28:01.503Z,21.26
2023-06-18T20:29:42.781Z,21.31
2023-06-18T20:31:22.797Z,21.97
2023-06-18T20:32:47.170Z,22.70
2023-06-18T20:34:09.209Z,23.19
2023-06-18T20:35:33.745Z,23.22
2023-06-18T20:37:06.964Z,22.62
2023-06-18T20:38:40.475Z,21.89
2023-06-18T20:40:09.384Z,21.30
2023-06-18T20:41:43.525Z,20.84
2023-06-18T20:43:07.497Z,21.20
2023-06-18T20:44:43.712Z,21.89
2023-06-18T20:46:29.464Z,22.68
2023-06-18T20:48:03.133Z,23.22
2023-06-18T20:49:37.684Z,23.02
2023-06-18T20:51:22.604Z,22.26
2023-06-18T20:53:03.593Z,21.52
2023-06-18T20:54:42.237Z,20.93
2023-06-18T20:56:15.923Z,20.97
2023-06-18T20:58:00.929Z,21.77
2023-06-18T20:59:46.514Z,22.60
2023-06-18T21:01:41.770Z,23.18
2023-06-18T21:03:28.527Z,22.80
2023-06-18T21:05:02.546Z,22.07
2023-06-18T21:06:36.438Z,21.31
2023-06-18T21:08:10.368Z,20.74
2023-06-18T21:10:04.133Z,20.79
2023-06-18T21:11:28.752Z,21.56
2023-06-18T21:12:58.463Z,22.30
2023-06-18T21:14:43.916Z,22.91
2023-06-18T21:16:15.748Z,22.90
2023-06-18T21:17:51.297Z,22.23
2023-06-18T21:19:25.079Z,21.57
2023-06-18T21:20:58.848Z,20.85
2023-06-18T21:22:35.386Z,20.52
2023-06-18T21:23:59.343Z,20.95
2023-06-18T21:25:21.883Z,21.65
2023-06-18T21:26:50.793Z,22.36
2023-06-18T21:28:25.131Z,22.91
2023-06-18T21:29:58.633Z,22.82
2023-06-18T21:31:44.005Z,22.10
2023-06-18T21:33:37.530Z,21.33
2023-06-18T21:35:31.747Z,20.69
2023-06-18T21:37:16.989Z,21.14
2023-06-18T21:39:02.050Z,22.01
2023-06-18T21:40:56.800Z,22.77
2023-06-18T21:42:26.432Z,23.24
2023-06-18T21:44:12.158Z,22.88
2023-06-18T21:45:57.710Z,22.16